createdAt,value
2019-06-10T00:02:07.150Z,15.10
2019-06-10T00:04:36.954Z,15.10
2019-06-10T00:07:07.339Z,15.00
2019-06-10T00:09:37.404Z,14.90
2019-06-10T00:12:08.156Z,14.80
2019-06-10T00:14:38.486Z,14.80
2019-06-10T00:17:08.090Z,14.70
2019-06-10T00:19:37.585Z,14.70
2019-06-10T00:22:08.524Z,14.60
2019-06-10T00:24:40.797Z,14.50
2019-06-10T00:27:11.710Z,14.50
2019-06-10T00:29:41.114Z,14.40
2019-06-10T00:32:13.120Z,14.30
2019-06-10T00:34:42.058Z,14.20
2019-06-10T00:37:14.518Z,14.20
2019-06-10T00:39:43.235Z,14.10
2019-06-10T00:42:14.996Z,14.20
2019-06-10T00:44:43.934Z,14.10
2019-06-10T00:47:15.169Z,14.10
2019-06-10T00:49:44.567Z,14.00
2019-06-10T00:52:14.188Z,13.90
2019-06-10T00:54:43.828Z,13.90
2019-06-10T00:57:13.790Z,13.80
2019-06-10T00:59:43.461Z,13.70
2019-06-10T01:02:14.518Z,13.60
2019-06-10T01:04:44.205Z,13.60
2019-06-10T01:07:14.930Z,13.50
2019-06-10T01:09:44.547Z,13.50
2019-06-10T01:12:14.952Z,13.40
2019-06-10T01:14:44.684Z,13.40
2019-06-10T01:17:15.518Z,13.30
2019-06-10T01:19:45.201Z,13.20
2019-06-10T01:22:15.884Z,13.20
2019-06-10T01:24:45.963Z,13.10
2019-06-10T01:27:15.442Z,13.10
2019-06-10T01:29:44.930Z,13.00
2019-06-10T01:32:15.043Z,12.90
2019-06-10T01:34:45.295Z,12.90
2019-06-10T01:37:15.980Z,12.80
2019-06-10T01:39:45.970Z,12.70
2019-06-10T01:42:17.057Z,12.70
2019-06-10T01:44:46.740Z,12.70
2019-06-10T01:47:17.495Z,12.70
2019-06-10T01:49:47.494Z,12.60
2019-06-10T01:52:18.237Z,12.50
2019-06-10T01:54:47.906Z,12.50
2019-06-10T01:57:18.656Z,12.40
2019-06-10T01:59:50.726Z,12.40
2019-06-10T02:02:23.922Z,12.30
2019-06-10T02:04:53.371Z,12.30
2019-06-10T02:07:23.424Z,12.30
2019-06-10T02:09:52.905Z,12.30
2019-06-10T02:12:24.240Z,12.30
2019-06-10T02:14:54.104Z,12.20
2019-06-10T02:17:24.136Z,12.20
2019-06-10T02:19:53.851Z,12.20
2019-06-10T02:22:24.186Z,12.20
2019-06-10T02:24:54.060Z,12.10
2019-06-10T02:27:23.610Z,12.20
2019-06-10T02:29:53.189Z,12.10
2019-06-10T02:32:31.022Z,12.10
2019-06-10T02:35:07.871Z,12.10
2019-06-10T02:37:31.963Z,12.10
2019-06-10T02:39:56.425Z,12.10
2019-06-10T02:42:36.008Z,12.20
2019-06-10T02:45:06.358Z,12.20
2019-06-10T02:47:37.918Z,12.20
2019-06-10T02:50:09.009Z,12.20
2019-06-10T02:52:38.999Z,12.20
2019-06-10T02:55:08.704Z,12.30
2019-06-10T02:57:40.333Z,12.30
2019-06-10T03:00:20.730Z,12.30
2019-06-10T03:02:45.177Z,12.30
2019-06-10T03:05:14.501Z,12.30
2019-06-10T03:07:44.810Z,12.20
2019-06-10T03:10:16.078Z,12.20
2019-06-10T03:12:45.638Z,12.20
2019-06-10T03:15:15.759Z,12.20
2019-06-10T03:17:45.574Z,12.20
2019-06-10T03:20:16.031Z,12.20
2019-06-10T03:22:45.734Z,12.20
2019-06-10T03:25:16.315Z,12.30
2019-06-10T03:27:45.931Z,12.20
2019-06-10T03:30:24.018Z,12.30
2019-06-10T03:32:47.694Z,12.30
2019-06-10T03:35:19.121Z,12.40
2019-06-10T03:37:48.790Z,12.40
2019-06-10T03:40:18.512Z,12.50
2019-06-10T03:42:48.122Z,12.60
2019-06-10T03:45:19.217Z,12.60
2019-06-10T03:47:48.765Z,12.70
2019-06-10T03:50:19.223Z,12.80
2019-06-10T03:52:49.362Z,12.80
2019-06-10T03:55:19.365Z,12.90
2019-06-10T03:57:49.000Z,12.90
2019-06-10T04:00:19.476Z,12.90
2019-06-10T04:02:49.179Z,12.90
2019-06-10T04:05:19.429Z,12.90
2019-06-10T04:07:49.024Z,13.00
2019-06-10T04:10:19.555Z,13.00
2019-06-10T04:12:49.261Z,13.00
2019-06-10T04:15:19.665Z,13.10
2019-06-10T04:17:49.398Z,13.10
2019-06-10T04:20:19.750Z,13.20
2019-06-10T04:22:49.471Z,13.20
2019-06-10T04:25:19.836Z,13.30
2019-06-10T04:27:49.637Z,13.40
2019-06-10T04:30:20.166Z,13.50
2019-06-10T04:32:50.124Z,13.50
2019-06-10T04:35:20.875Z,13.60
2019-06-10T04:37:52.038Z,13.70
2019-06-10T04:40:23.526Z,13.70
2019-06-10T04:42:53.359Z,13.70
2019-06-10T04:45:23.593Z,13.80
2019-06-10T04:47:54.052Z,13.80
2019-06-10T04:50:34.553Z,13.80
2019-06-10T04:52:55.170Z,13.80
2019-06-10T04:55:26.158Z,13.80
2019-06-10T04:57:56.299Z,13.80
2019-06-10T05:00:27.631Z,13.80
2019-06-10T05:02:57.348Z,13.90
2019-06-10T05:05:27.304Z,13.90
2019-06-10T05:07:58.237Z,13.90
2019-06-10T05:10:28.379Z,13.90
2019-06-10T05:12:59.451Z,13.90
2019-06-10T05:15:31.543Z,14.00
2019-06-10T05:18:03.166Z,14.10
2019-06-10T05:20:46.742Z,14.20
2019-06-10T05:23:04.018Z,14.20
2019-06-10T05:25:33.538Z,14.20
2019-06-10T05:28:03.043Z,14.30
2019-06-10T05:30:34.060Z,14.40
2019-06-10T05:33:03.854Z,14.40
2019-06-10T05:35:34.016Z,14.50
2019-06-10T05:38:03.578Z,14.60
2019-06-10T05:40:34.257Z,14.70
2019-06-10T05:43:03.978Z,14.80
2019-06-10T05:45:35.173Z,14.80
2019-06-10T05:48:04.923Z,14.80
2019-06-10T05:50:35.131Z,14.90
2019-06-10T05:53:04.779Z,15.00
2019-06-10T05:55:35.263Z,15.10
2019-06-10T05:58:04.938Z,15.20
2019-06-10T06:00:35.551Z,15.30
2019-06-10T06:03:05.486Z,15.40
2019-06-10T06:05:37.629Z,15.60
2019-06-10T06:08:08.721Z,15.60
2019-06-10T06:10:42.506Z,15.70
2019-06-10T06:13:12.717Z,15.80
2019-06-10T06:15:42.493Z,15.80
2019-06-10T06:18:14.117Z,15.90
2019-06-10T06:20:44.675Z,16.00
2019-06-10T06:23:14.202Z,16.10
2019-06-10T06:25:46.888Z,16.20
2019-06-10T06:28:16.290Z,16.20
2019-06-10T06:30:46.063Z,16.30
2019-06-10T06:33:15.574Z,16.40
2019-06-10T06:35:46.597Z,16.40
2019-06-10T06:38:16.568Z,16.50
2019-06-10T06:40:46.084Z,16.50
2019-06-10T06:43:15.600Z,16.60
2019-06-10T06:45:45.504Z,16.80
2019-06-10T06:48:15.171Z,17.10
2019-06-10T06:51:00.366Z,17.40
2019-06-10T06:53:25.513Z,17.60
2019-06-10T06:55:47.270Z,17.70
2019-06-10T06:58:16.780Z,17.80
2019-06-10T07:01:00.711Z,18.00
2019-06-10T07:03:17.486Z,17.90
2019-06-10T07:05:47.782Z,18.20
2019-06-10T07:08:18.602Z,18.20
2019-06-10T07:10:48.290Z,18.30
2019-06-10T07:13:17.802Z,18.20
2019-06-10T07:15:49.197Z,18.40
2019-06-10T07:18:18.724Z,18.40
2019-06-10T07:20:48.347Z,18.50
2019-06-10T07:23:17.864Z,18.50
2019-06-10T07:25:47.812Z,18.60
2019-06-10T07:28:17.474Z,18.30
2019-06-10T07:30:51.690Z,18.30
2019-06-10T07:33:18.467Z,18.30
2019-06-10T07:35:47.979Z,18.40
2019-06-10T07:38:17.486Z,18.30
2019-06-10T07:40:47.022Z,18.20
2019-06-10T07:43:16.483Z,18.20
2019-06-10T07:45:48.073Z,18.30
2019-06-10T07:48:17.519Z,18.40
2019-06-10T07:50:47.034Z,18.60
2019-06-10T07:53:16.518Z,18.90
2019-06-10T07:55:46.712Z,18.80
2019-06-10T07:58:16.758Z,18.80
2019-06-10T08:00:48.379Z,19.10
2019-06-10T08:03:17.405Z,19.20
2019-06-10T08:05:47.590Z,19.10
2019-06-10T08:08:17.162Z,19.40
2019-06-10T08:10:48.178Z,19.60
2019-06-10T08:13:17.720Z,19.60
2019-06-10T08:15:48.371Z,19.50
2019-06-10T08:18:17.948Z,19.50
2019-06-10T08:21:08.609Z,19.50
2019-06-10T08:23:38.621Z,19.50
2019-06-10T08:26:08.227Z,19.70
2019-06-10T08:28:37.755Z,19.90
2019-06-10T08:31:07.278Z,20.10
2019-06-10T08:33:37.014Z,20.20
2019-06-10T08:36:06.563Z,20.30
2019-06-10T08:38:36.367Z,20.50
2019-06-10T08:41:06.404Z,20.70
2019-06-10T08:43:36.449Z,20.80
2019-06-10T08:46:06.054Z,20.80
2019-06-10T08:48:35.566Z,20.90
2019-06-10T08:51:05.251Z,20.90
2019-06-10T08:53:35.066Z,21.10
2019-06-10T08:56:04.594Z,21.20
2019-06-10T08:58:34.127Z,21.20
2019-06-10T09:01:03.627Z,21.20
2019-06-10T09:03:33.178Z,21.10
2019-06-10T09:06:03.403Z,21.00
2019-06-10T09:08:32.957Z,21.30
2019-06-10T09:11:02.641Z,21.30
2019-06-10T09:13:33.609Z,21.20
2019-06-10T09:16:14.678Z,21.10
2019-06-10T09:18:34.821Z,21.30
2019-06-10T09:21:04.375Z,21.40
2019-06-10T09:23:33.893Z,21.60
2019-06-10T09:26:03.800Z,21.80
2019-06-10T09:28:33.508Z,22.10
2019-06-10T09:31:04.332Z,22.00
2019-06-10T09:33:34.452Z,21.90
2019-06-10T09:36:04.310Z,22.00
2019-06-10T09:38:34.658Z,22.00
2019-06-10T09:41:06.171Z,22.10
2019-06-10T09:43:35.948Z,21.90
2019-06-10T09:46:05.585Z,22.10
2019-06-10T09:48:35.147Z,22.40
2019-06-10T09:51:04.666Z,22.50
2019-06-10T09:53:42.391Z,22.60
2019-06-10T09:56:05.687Z,22.60
2019-06-10T09:58:35.616Z,22.50
2019-06-10T10:01:05.187Z,22.70
2019-06-10T10:03:34.720Z,22.90
2019-06-10T10:06:14.576Z,22.80
2019-06-10T10:08:36.294Z,22.80
2019-06-10T10:11:05.860Z,22.80
2019-06-10T10:13:35.651Z,23.00
2019-06-10T10:16:05.683Z,22.90
2019-06-10T10:18:35.616Z,23.00
2019-06-10T10:21:05.640Z,23.20
2019-06-10T10:23:50.156Z,23.10
2019-06-10T10:26:06.537Z,23.40
2019-06-10T10:28:36.202Z,23.50
2019-06-10T10:31:05.762Z,23.70
2019-06-10T10:33:35.431Z,23.50
2019-06-10T10:36:04.976Z,23.00
2019-06-10T10:38:35.000Z,23.30
2019-06-10T10:41:05.019Z,23.30
2019-06-10T10:43:37.555Z,23.50
2019-06-10T10:46:06.340Z,23.50
2019-06-10T10:48:36.192Z,23.80
2019-06-10T10:51:05.842Z,23.70
2019-06-10T10:53:35.332Z,23.70
2019-06-10T10:56:05.193Z,23.70
2019-06-10T10:58:34.722Z,23.60
2019-06-10T11:01:04.880Z,23.80
2019-06-10T11:03:34.887Z,23.80
2019-06-10T11:06:04.445Z,24.10
2019-06-10T11:08:34.018Z,24.20
2019-06-10T11:11:05.757Z,24.50
2019-06-10T11:13:36.780Z,24.60
2019-06-10T11:16:06.587Z,24.90
2019-06-10T11:18:36.250Z,25.00
2019-06-10T11:21:05.884Z,25.00
2019-06-10T11:23:35.422Z,25.10
2019-06-10T11:26:05.447Z,25.20
2019-06-10T11:28:35.282Z,25.20
2019-06-10T11:31:04.872Z,25.10
2019-06-10T11:33:34.454Z,24.80
2019-06-10T11:36:04.772Z,24.70
2019-06-10T11:38:34.318Z,24.70
2019-06-10T11:41:03.847Z,24.30
2019-06-10T11:43:33.644Z,24.20
2019-06-10T11:46:07.494Z,24.20
2019-06-10T11:48:34.764Z,24.20
2019-06-10T11:51:04.897Z,24.00
2019-06-10T11:53:34.861Z,24.10
2019-06-10T11:56:04.850Z,24.40
2019-06-10T11:58:34.338Z,24.60
2019-06-10T12:01:04.210Z,24.70
2019-06-10T12:03:34.087Z,24.90
2019-06-10T12:06:05.182Z,24.90
2019-06-10T12:08:35.060Z,25.00
2019-06-10T12:11:04.612Z,24.90
2019-06-10T12:13:34.756Z,25.00
2019-06-10T12:17:05.136Z,25.10
2019-06-10T12:18:36.126Z,25.10
2019-06-10T12:21:05.703Z,25.40
2019-06-10T12:23:35.362Z,25.60
2019-06-10T12:26:05.383Z,25.80
2019-06-10T12:28:35.517Z,25.90
2019-06-10T12:31:07.025Z,25.90
2019-06-10T12:33:36.217Z,25.80
2019-06-10T12:36:07.432Z,25.70
2019-06-10T12:38:37.269Z,25.80
2019-06-10T12:41:10.302Z,25.70
2019-06-10T12:43:38.408Z,25.70
2019-06-10T12:46:07.930Z,25.80
2019-06-10T12:48:37.719Z,25.90
2019-06-10T12:51:09.431Z,25.90
2019-06-10T12:53:39.102Z,26.00
2019-06-10T12:56:11.338Z,26.10
2019-06-10T12:58:39.840Z,26.30
2019-06-10T13:01:11.570Z,26.30
2019-06-10T13:03:43.632Z,26.30
2019-06-10T13:06:13.855Z,26.40
2019-06-10T13:08:43.914Z,26.50
2019-06-10T13:11:14.985Z,26.70
2019-06-10T13:13:45.360Z,27.00
2019-06-10T13:16:15.336Z,26.80
2019-06-10T13:18:44.832Z,26.70
2019-06-10T13:21:17.626Z,26.40
2019-06-10T13:23:45.554Z,26.50
2019-06-10T13:26:16.597Z,26.60
2019-06-10T13:28:46.266Z,26.50
2019-06-10T13:31:15.782Z,26.50
2019-06-10T13:33:45.707Z,26.40
2019-06-10T13:36:15.308Z,26.10
2019-06-10T13:38:44.958Z,25.90
2019-06-10T13:41:14.582Z,26.00
2019-06-10T13:43:44.132Z,26.30
2019-06-10T13:46:13.598Z,26.50
2019-06-10T13:48:43.313Z,26.80
2019-06-10T13:51:15.544Z,26.80
2019-06-10T13:53:46.392Z,26.70
2019-06-10T13:56:37.836Z,26.90
2019-06-10T13:58:48.087Z,26.60
2019-06-10T14:01:22.080Z,26.70
2019-06-10T14:03:48.884Z,26.60
2019-06-10T14:06:37.044Z,26.60
2019-06-10T14:08:52.200Z,26.20
2019-06-10T14:11:25.800Z,26.50
2019-06-10T14:13:52.793Z,26.60
2019-06-10T14:16:23.397Z,26.70
2019-06-10T14:18:54.132Z,26.90
2019-06-10T14:21:23.894Z,26.90
2019-06-10T14:23:53.933Z,26.90
2019-06-10T14:26:36.852Z,27.00
2019-06-10T14:28:54.582Z,26.70
2019-06-10T14:31:39.167Z,26.60
2019-06-10T14:33:55.562Z,26.50
2019-06-10T14:36:25.087Z,26.70
2019-06-10T14:38:54.975Z,26.80
2019-06-10T14:41:26.078Z,26.80
2019-06-10T14:43:56.285Z,26.70
2019-06-10T14:46:25.839Z,26.40
2019-06-10T14:48:55.475Z,26.60
2019-06-10T14:51:25.287Z,26.50
2019-06-10T14:53:54.810Z,26.40
2019-06-10T14:56:24.352Z,26.50
2019-06-10T14:58:53.897Z,26.60
2019-06-10T15:01:25.246Z,26.50
2019-06-10T15:03:54.704Z,26.40
2019-06-10T15:06:24.915Z,26.30
2019-06-10T15:08:54.510Z,26.10
2019-06-10T15:11:27.547Z,26.00
2019-06-10T15:13:55.735Z,25.70
2019-06-10T15:16:26.073Z,25.70
2019-06-10T15:19:10.910Z,25.50
2019-06-10T15:21:26.812Z,25.50
2019-06-10T15:23:56.318Z,25.40
2019-06-10T15:26:26.442Z,25.20
2019-06-10T15:28:55.958Z,25.10
2019-06-10T15:31:25.526Z,24.90
2019-06-10T15:33:55.027Z,24.60
2019-06-10T15:36:24.562Z,24.60
2019-06-10T15:38:54.489Z,24.50
2019-06-10T15:41:24.703Z,24.50
2019-06-10T15:43:54.394Z,24.50
2019-06-10T15:46:23.903Z,24.40
2019-06-10T15:48:54.098Z,24.50
2019-06-10T15:51:26.112Z,24.50
2019-06-10T15:53:55.371Z,24.60
2019-06-10T15:56:38.676Z,24.70
2019-06-10T15:58:56.044Z,24.90
2019-06-10T16:01:27.422Z,25.00
2019-06-10T16:03:56.783Z,25.10
2019-06-10T16:06:26.314Z,25.20
2019-06-10T16:08:55.899Z,25.30
2019-06-10T16:11:27.179Z,25.30
2019-06-10T16:13:56.887Z,25.30
2019-06-10T16:16:26.409Z,25.00
2019-06-10T16:18:55.983Z,25.00
2019-06-10T16:21:25.598Z,24.80
2019-06-10T16:23:55.139Z,24.70
2019-06-10T16:26:26.722Z,24.70
2019-06-10T16:28:55.948Z,24.60
2019-06-10T16:31:27.541Z,24.60
2019-06-10T16:33:57.962Z,24.50
2019-06-10T16:36:28.205Z,24.40
2019-06-10T16:38:57.833Z,24.40
2019-06-10T16:41:28.092Z,24.40
2019-06-10T16:43:57.978Z,24.50
2019-06-10T16:46:29.089Z,24.40
2019-06-10T16:48:59.669Z,24.30
2019-06-10T16:51:29.898Z,24.10
2019-06-10T16:54:02.278Z,24.00
2019-06-10T16:56:33.578Z,24.00
2019-06-10T16:59:03.037Z,23.80
2019-06-10T17:01:33.340Z,23.70
2019-06-10T17:04:02.918Z,23.50
2019-06-10T17:06:33.029Z,23.50
2019-06-10T17:09:02.899Z,23.40
2019-06-10T17:11:32.508Z,23.40
2019-06-10T17:14:03.097Z,23.40
2019-06-10T17:16:33.027Z,23.40
2019-06-10T17:19:02.679Z,23.50
2019-06-10T17:21:34.598Z,23.50
2019-06-10T17:24:03.577Z,23.50
2019-06-10T17:26:37.932Z,23.60
2019-06-10T17:29:04.666Z,23.70
2019-06-10T17:31:35.153Z,23.70
2019-06-10T17:34:04.861Z,23.70
2019-06-10T17:36:35.390Z,23.80
2019-06-10T17:39:06.848Z,24.00
2019-06-10T17:41:36.440Z,24.00
2019-06-10T17:44:06.371Z,23.90
2019-06-10T17:46:36.044Z,23.90
2019-06-10T17:49:05.568Z,23.70
2019-06-10T17:51:35.664Z,23.50
2019-06-10T17:54:05.547Z,23.30
2019-06-10T17:56:36.240Z,23.10
2019-06-10T17:59:05.998Z,22.50
2019-06-10T18:01:35.736Z,21.80
2019-06-10T18:04:05.345Z,21.00
2019-06-10T18:06:36.458Z,20.40
2019-06-10T18:09:07.480Z,19.90
2019-06-10T18:11:37.074Z,19.50
2019-06-10T18:14:06.635Z,19.30
2019-06-10T18:16:36.673Z,19.10
2019-06-10T18:19:06.389Z,19.00
2019-06-10T18:21:36.467Z,18.80
2019-06-10T18:24:08.322Z,18.60
2019-06-10T18:26:38.005Z,18.40
2019-06-10T18:29:09.226Z,18.20
2019-06-10T18:31:39.292Z,18.00
2019-06-10T18:34:08.892Z,17.90
2019-06-10T18:36:38.414Z,17.60
2019-06-10T18:39:08.464Z,17.50
2019-06-10T18:41:40.070Z,17.50
2019-06-10T18:44:19.985Z,17.40
2019-06-10T18:46:43.257Z,17.30
2019-06-10T18:49:13.247Z,17.20
2019-06-10T18:51:43.470Z,17.10
2019-06-10T18:54:13.334Z,17.10
2019-06-10T18:56:43.720Z,17.10
2019-06-10T18:59:20.616Z,17.00
2019-06-10T19:01:44.955Z,16.90
2019-06-10T19:04:14.564Z,17.00
2019-06-10T19:06:44.167Z,17.00
2019-06-10T19:09:14.935Z,17.00
2019-06-10T19:11:44.581Z,17.10
2019-06-10T19:14:14.142Z,17.10
2019-06-10T19:16:43.863Z,17.10
2019-06-10T19:19:13.374Z,17.00
2019-06-10T19:21:44.082Z,16.90
2019-06-10T19:24:13.729Z,16.80
2019-06-10T19:26:45.168Z,16.70
2019-06-10T19:29:27.516Z,16.60
2019-06-10T19:31:46.364Z,16.50
2019-06-10T19:34:16.150Z,16.40
2019-06-10T19:36:45.702Z,16.20
2019-06-10T19:39:15.389Z,16.00
2019-06-10T19:41:47.205Z,16.00
2019-06-10T19:44:16.471Z,15.90
2019-06-10T19:46:46.396Z,15.80
2019-06-10T19:49:15.927Z,15.80
2019-06-10T19:51:46.841Z,15.80
2019-06-10T19:54:16.514Z,15.90
2019-06-10T19:56:46.034Z,16.00
2019-06-10T19:59:15.571Z,16.00
2019-06-10T20:01:48.248Z,16.10
2019-06-10T20:04:18.283Z,16.00
2019-06-10T20:06:50.689Z,16.00
2019-06-10T20:09:19.210Z,16.00
2019-06-10T20:11:48.738Z,16.00
2019-06-10T20:14:18.249Z,16.00
2019-06-10T20:16:48.186Z,16.00
2019-06-10T20:19:18.115Z,16.00
2019-06-10T20:21:49.003Z,16.00
2019-06-10T20:24:18.675Z,16.00
2019-06-10T20:26:48.331Z,16.00
2019-06-10T20:29:18.387Z,16.00
2019-06-10T20:31:48.947Z,15.90
2019-06-10T20:34:19.591Z,15.90
2019-06-10T20:36:50.243Z,15.90
2019-06-10T20:39:24.353Z,15.90
2019-06-10T20:41:54.816Z,15.90
2019-06-10T20:44:22.423Z,16.00
2019-06-10T20:46:52.869Z,16.00
2019-06-10T20:49:22.823Z,16.00
2019-06-10T20:52:06.627Z,16.10
2019-06-10T20:54:23.896Z,16.00
2019-06-10T20:56:53.716Z,16.00
2019-06-10T20:59:26.113Z,16.00
2019-06-10T21:01:54.926Z,16.10
2019-06-10T21:04:24.883Z,16.20
2019-06-10T21:06:56.759Z,16.20
2019-06-10T21:09:27.086Z,16.20
2019-06-10T21:11:57.068Z,16.20
2019-06-10T21:14:26.927Z,16.30
2019-06-10T21:16:56.479Z,16.30
2019-06-10T21:19:25.990Z,16.40
2019-06-10T21:21:55.537Z,16.40
2019-06-10T21:24:25.515Z,16.30
2019-06-10T21:26:55.123Z,16.30
2019-06-10T21:29:24.750Z,16.40
2019-06-10T21:31:54.975Z,16.50
2019-06-10T21:34:24.712Z,16.50
2019-06-10T21:36:54.512Z,16.50
2019-06-10T21:39:24.550Z,16.50
2019-06-10T21:41:54.793Z,16.60
2019-06-10T21:44:24.388Z,16.60
2019-06-10T21:46:53.991Z,16.50
2019-06-10T21:49:23.914Z,16.60
2019-06-10T21:51:56.584Z,16.60
2019-06-10T21:54:25.138Z,16.60
2019-06-10T21:56:55.638Z,16.60
2019-06-10T21:59:25.336Z,16.60
2019-06-10T22:01:55.179Z,16.60
2019-06-10T22:04:24.812Z,16.70
2019-06-10T22:06:55.971Z,16.60
2019-06-10T22:09:26.074Z,16.60
2019-06-10T22:11:55.986Z,16.60
2019-06-10T22:14:25.832Z,16.50
2019-06-10T22:16:56.481Z,16.40
2019-06-10T22:19:26.217Z,16.40
2019-06-10T22:21:56.709Z,16.30
2019-06-10T22:24:26.467Z,16.30
2019-06-10T22:26:56.474Z,16.20
2019-06-10T22:29:26.269Z,16.20
2019-06-10T22:31:57.180Z,16.20
2019-06-10T22:34:26.914Z,16.20
2019-06-10T22:36:57.619Z,16.20
2019-06-10T22:39:27.450Z,16.30
2019-06-10T22:41:57.352Z,16.30
2019-06-10T22:44:26.985Z,16.20
2019-06-10T22:46:57.282Z,16.20
2019-06-10T22:49:27.479Z,16.30
2019-06-10T22:51:58.971Z,16.30
2019-06-10T22:54:28.514Z,16.30
2019-06-10T22:56:58.564Z,16.30
2019-06-10T22:59:28.392Z,16.40
2019-06-10T23:01:59.964Z,16.30
2019-06-10T23:04:29.660Z,16.30
2019-06-10T23:07:00.594Z,16.30
2019-06-10T23:09:30.736Z,16.20
2019-06-10T23:12:02.659Z,16.00
2019-06-10T23:14:33.204Z,16.00
2019-06-10T23:17:03.390Z,15.90
2019-06-10T23:19:33.243Z,15.80
2019-06-10T23:22:03.162Z,15.70
2019-06-10T23:24:32.776Z,15.70
2019-06-10T23:27:03.329Z,15.70
2019-06-10T23:29:33.067Z,15.70
2019-06-10T23:32:06.730Z,15.60
2019-06-10T23:34:33.769Z,15.50
2019-06-10T23:37:03.355Z,15.50
2019-06-10T23:39:33.544Z,15.60
2019-06-10T23:42:04.287Z,15.60
2019-06-10T23:44:34.558Z,15.50
2019-06-10T23:47:04.478Z,15.60
2019-06-10T23:49:34.014Z,15.60
2019-06-10T23:52:05.385Z,15.70
2019-06-10T23:54:34.896Z,15.70
2019-06-10T23:57:05.993Z,15.70
2019-06-10T23:59:35.627Z,15.70
